sensor_id;sensor_type;location;lat;lon;timestamp;pressure;altitude;pressure_sealevel;temperature;humidity
77027;BME280;65956;52.986;17.490;2023-11-21T00:00:36;99638.53;;;0.60;100.00
77027;BME280;65956;52.986;17.490;2023-11-21T00:03:22;99641.97;;;0.58;100.00
77027;BME280;65956;52.986;17.490;2023-11-21T00:05:49;99645.81;;;0.56;100.00
77027;BME280;65956;52.986;17.490;2023-11-21T00:08:15;99644.77;;;0.54;100.00
77027;BME280;65956;52.986;17.490;2023-11-21T00:10:41;99642.33;;;0.54;100.00
77027;BME280;65956;52.986;17.490;2023-11-21T00:13:07;99644.08;;;0.52;100.00
77027;BME280;65956;52.986;17.490;2023-11-21T00:15:33;99642.56;;;0.52;100.00
77027;BME280;65956;52.986;17.490;2023-11-21T00:17:59;99649.23;;;0.50;100.00
77027;BME280;65956;52.986;17.490;2023-11-21T00:20:25;99652.63;;;0.51;100.00
77027;BME280;65956;52.986;17.490;2023-11-21T00:22:52;99651.75;;;0.51;100.00
77027;BME280;65956;52.986;17.490;2023-11-21T00:25:18;99655.08;;;0.51;100.00
77027;BME280;65956;52.986;17.490;2023-11-21T00:27:44;99652.75;;;0.52;100.00
77027;BME280;65956;52.986;17.490;2023-11-21T00:30:12;99649.88;;;0.53;100.00
77027;BME280;65956;52.986;17.490;2023-11-21T00:32:38;99651.40;;;0.55;100.00
77027;BME280;65956;52.986;17.490;2023-11-21T00:35:05;99657.06;;;0.54;100.00
77027;BME280;65956;52.986;17.490;2023-11-21T00:37:31;99659.60;;;0.53;100.00
77027;BME280;65956;52.986;17.490;2023-11-21T00:39:58;99660.93;;;0.53;100.00
77027;BME280;65956;52.986;17.490;2023-11-21T00:42:24;99660.65;;;0.52;100.00
77027;BME280;65956;52.986;17.490;2023-11-21T00:44:51;99661.00;;;0.51;100.00
77027;BME280;65956;52.986;17.490;2023-11-21T00:47:17;99661.62;;;0.51;100.00
77027;BME280;65956;52.986;17.490;2023-11-21T00:49:43;99667.64;;;0.49;100.00
77027;BME280;65956;52.986;17.490;2023-11-21T00:52:09;99667.98;;;0.48;100.00
77027;BME280;65956;52.986;17.490;2023-11-21T00:54:35;99671.23;;;0.47;100.00
77027;BME280;65956;52.986;17.490;2023-11-21T00:57:01;99665.41;;;0.45;100.00
77027;BME280;65956;52.986;17.490;2023-11-21T00:59:27;99663.84;;;0.43;100.00
77027;BME280;65956;52.986;17.490;2023-11-21T01:01:53;99667.15;;;0.42;100.00
77027;BME280;65956;52.986;17.490;2023-11-21T01:04:20;99671.38;;;0.40;100.00
77027;BME280;65956;52.986;17.490;2023-11-21T01:06:46;99683.30;;;0.39;100.00
77027;BME280;65956;52.986;17.490;2023-11-21T01:09:12;99687.17;;;0.38;100.00
77027;BME280;65956;52.986;17.490;2023-11-21T01:11:38;99691.06;;;0.37;100.00
77027;BME280;65956;52.986;17.490;2023-11-21T01:14:04;99691.55;;;0.38;100.00
77027;BME280;65956;52.986;17.490;2023-11-21T01:16:31;99688.65;;;0.38;100.00
77027;BME280;65956;52.986;17.490;2023-11-21T01:18:59;99688.45;;;0.37;100.00
77027;BME280;65956;52.986;17.490;2023-11-21T01:21:25;99687.60;;;0.35;100.00
77027;BME280;65956;52.986;17.490;2023-11-21T01:23:51;99690.39;;;0.34;100.00
77027;BME280;65956;52.986;17.490;2023-11-21T01:26:17;99692.95;;;0.35;100.00
77027;BME280;65956;52.986;17.490;2023-11-21T01:28:43;99697.61;;;0.33;100.00
77027;BME280;65956;52.986;17.490;2023-11-21T01:31:09;99700.76;;;0.32;100.00
77027;BME280;65956;52.986;17.490;2023-11-21T01:33:35;99700.95;;;0.31;100.00
77027;BME280;65956;52.986;17.490;2023-11-21T01:36:01;99705.92;;;0.30;100.00
77027;BME280;65956;52.986;17.490;2023-11-21T01:38:27;99708.69;;;0.29;100.00
77027;BME280;65956;52.986;17.490;2023-11-21T01:40:53;99705.75;;;0.29;100.00
77027;BME280;65956;52.986;17.490;2023-11-21T01:43:19;99715.73;;;0.28;100.00
77027;BME280;65956;52.986;17.490;2023-11-21T01:45:45;99717.16;;;0.28;100.00
77027;BME280;65956;52.986;17.490;2023-11-21T01:48:12;99725.76;;;0.28;100.00
77027;BME280;65956;52.986;17.490;2023-11-21T01:50:39;99727.34;;;0.28;100.00
77027;BME280;65956;52.986;17.490;2023-11-21T01:53:05;99725.92;;;0.28;100.00
77027;BME280;65956;52.986;17.490;2023-11-21T01:55:33;99724.17;;;0.26;100.00
77027;BME280;65956;52.986;17.490;2023-11-21T01:58:00;99725.50;;;0.26;100.00
77027;BME280;65956;52.986;17.490;2023-11-21T02:00:26;99725.15;;;0.25;100.00
77027;BME280;65956;52.986;17.490;2023-11-21T02:02:55;99726.30;;;0.23;100.00
77027;BME280;65956;52.986;17.490;2023-11-21T02:05:22;99728.81;;;0.21;100.00
77027;BME280;65956;52.986;17.490;2023-11-21T02:07:48;99731.81;;;0.22;100.00
77027;BME280;65956;52.986;17.490;2023-11-21T02:10:15;99731.58;;;0.22;100.00
77027;BME280;65956;52.986;17.490;2023-11-21T02:12:42;99732.13;;;0.24;100.00
77027;BME280;65956;52.986;17.490;2023-11-21T02:15:10;99731.62;;;0.25;100.00
77027;BME280;65956;52.986;17.490;2023-11-21T02:17:44;99734.13;;;0.23;100.00
77027;BME280;65956;52.986;17.490;2023-11-21T02:20:13;99735.93;;;0.23;100.00
77027;BME280;65956;52.986;17.490;2023-11-21T02:22:53;99737.14;;;0.22;100.00
77027;BME280;65956;52.986;17.490;2023-11-21T02:25:34;99739.15;;;0.20;100.00
77027;BME280;65956;52.986;17.490;2023-11-21T02:28:03;99732.34;;;0.18;100.00
77027;BME280;65956;52.986;17.490;2023-11-21T02:30:30;99734.27;;;0.16;100.00
77027;BME280;65956;52.986;17.490;2023-11-21T02:33:02;99742.70;;;0.14;100.00
77027;BME280;65956;52.986;17.490;2023-11-21T02:35:28;99753.09;;;0.14;100.00
77027;BME280;65956;52.986;17.490;2023-11-21T02:37:54;99755.43;;;0.14;100.00
77027;BME280;65956;52.986;17.490;2023-11-21T02:40:20;99751.11;;;0.13;100.00
77027;BME280;65956;52.986;17.490;2023-11-21T02:42:47;99750.27;;;0.11;100.00
77027;BME280;65956;52.986;17.490;2023-11-21T02:45:14;99756.24;;;0.07;100.00
77027;BME280;65956;52.986;17.490;2023-11-21T02:47:45;99757.75;;;0.04;100.00
77027;BME280;65956;52.986;17.490;2023-11-21T02:50:11;99760.90;;;0.03;100.00
77027;BME280;65956;52.986;17.490;2023-11-21T02:52:37;99760.15;;;0.02;100.00
77027;BME280;65956;52.986;17.490;2023-11-21T02:55:06;99764.13;;;0.03;100.00
77027;BME280;65956;52.986;17.490;2023-11-21T02:57:35;99766.45;;;0.02;100.00
77027;BME280;65956;52.986;17.490;2023-11-21T03:00:01;99767.05;;;0.02;100.00
77027;BME280;65956;52.986;17.490;2023-11-21T03:02:28;99765.26;;;-0.00;100.00
77027;BME280;65956;52.986;17.490;2023-11-21T03:04:54;99772.02;;;-0.01;100.00
77027;BME280;65956;52.986;17.490;2023-11-21T03:07:20;99776.27;;;-0.04;100.00
77027;BME280;65956;52.986;17.490;2023-11-21T03:09:47;99780.14;;;-0.06;100.00
77027;BME280;65956;52.986;17.490;2023-11-21T03:12:13;99782.05;;;-0.08;100.00
77027;BME280;65956;52.986;17.490;2023-11-21T03:14:40;99787.27;;;-0.11;100.00
77027;BME280;65956;52.986;17.490;2023-11-21T03:17:06;99789.17;;;-0.13;100.00
77027;BME280;65956;52.986;17.490;2023-11-21T03:19:32;99789.21;;;-0.14;100.00
77027;BME280;65956;52.986;17.490;2023-11-21T03:21:58;99789.52;;;-0.15;100.00
77027;BME280;65956;52.986;17.490;2023-11-21T03:24:25;99794.54;;;-0.18;100.00
77027;BME280;65956;52.986;17.490;2023-11-21T03:26:52;99793.37;;;-0.20;100.00
77027;BME280;65956;52.986;17.490;2023-11-21T03:29:18;99793.04;;;-0.23;100.00
77027;BME280;65956;52.986;17.490;2023-11-21T03:31:44;99798.29;;;-0.26;100.00
77027;BME280;65956;52.986;17.490;2023-11-21T03:34:15;99802.52;;;-0.29;100.00
77027;BME280;65956;52.986;17.490;2023-11-21T03:36:42;99808.67;;;-0.31;100.00
77027;BME280;65956;52.986;17.490;2023-11-21T03:39:07;99813.69;;;-0.32;100.00
77027;BME280;65956;52.986;17.490;2023-11-21T03:41:33;99814.89;;;-0.33;100.00
77027;BME280;65956;52.986;17.490;2023-11-21T03:43:59;99811.45;;;-0.33;100.00
77027;BME280;65956;52.986;17.490;2023-11-21T03:46:26;99817.27;;;-0.34;100.00
77027;BME280;65956;52.986;17.490;2023-11-21T03:48:52;99810.81;;;-0.35;100.00
77027;BME280;65956;52.986;17.490;2023-11-21T03:51:18;99814.27;;;-0.36;100.00
77027;BME280;65956;52.986;17.490;2023-11-21T03:53:44;99811.86;;;-0.36;100.00
77027;BME280;65956;52.986;17.490;2023-11-21T03:56:10;99811.82;;;-0.36;100.00
77027;BME280;65956;52.986;17.490;2023-11-21T03:58:36;99816.05;;;-0.38;100.00
77027;BME280;65956;52.986;17.490;2023-11-21T04:01:02;99812.57;;;-0.38;100.00
77027;BME280;65956;52.986;17.490;2023-11-21T04:03:28;99813.27;;;-0.38;100.00
77027;BME280;65956;52.986;17.490;2023-11-21T04:05:53;99815.76;;;-0.39;100.00
77027;BME280;65956;52.986;17.490;2023-11-21T04:08:19;99822.38;;;-0.39;100.00
77027;BME280;65956;52.986;17.490;2023-11-21T04:10:45;99822.52;;;-0.40;100.00
77027;BME280;65956;52.986;17.490;2023-11-21T04:13:11;99820.91;;;-0.41;100.00
77027;BME280;65956;52.986;17.490;2023-11-21T04:15:38;99824.92;;;-0.42;100.00
77027;BME280;65956;52.986;17.490;2023-11-21T04:18:04;99828.00;;;-0.42;100.00
77027;BME280;65956;52.986;17.490;2023-11-21T04:20:30;99830.38;;;-0.43;100.00
77027;BME280;65956;52.986;17.490;2023-11-21T04:22:56;99829.52;;;-0.44;100.00
77027;BME280;65956;52.986;17.490;2023-11-21T04:25:22;99823.30;;;-0.44;100.00
77027;BME280;65956;52.986;17.490;2023-11-21T04:27:49;99823.53;;;-0.48;100.00
77027;BME280;65956;52.986;17.490;2023-11-21T04:30:15;99827.61;;;-0.51;100.00
77027;BME280;65956;52.986;17.490;2023-11-21T04:32:41;99834.18;;;-0.53;100.00
77027;BME280;65956;52.986;17.490;2023-11-21T04:35:08;99838.27;;;-0.54;100.00
77027;BME280;65956;52.986;17.490;2023-11-21T04:37:37;99840.52;;;-0.55;100.00
77027;BME280;65956;52.986;17.490;2023-11-21T04:40:03;99845.66;;;-0.56;100.00
77027;BME280;65956;52.986;17.490;2023-11-21T04:42:35;99849.02;;;-0.56;100.00
77027;BME280;65956;52.986;17.490;2023-11-21T04:45:04;99850.82;;;-0.56;100.00
77027;BME280;65956;52.986;17.490;2023-11-21T04:47:34;99856.23;;;-0.56;100.00
77027;BME280;65956;52.986;17.490;2023-11-21T04:50:00;99857.80;;;-0.57;100.00
77027;BME280;65956;52.986;17.490;2023-11-21T04:52:26;99869.27;;;-0.58;100.00
77027;BME280;65956;52.986;17.490;2023-11-21T04:54:52;99873.73;;;-0.57;100.00
77027;BME280;65956;52.986;17.490;2023-11-21T04:57:23;99873.36;;;-0.57;100.00
77027;BME280;65956;52.986;17.490;2023-11-21T04:59:49;99876.38;;;-0.58;100.00
77027;BME280;65956;52.986;17.490;2023-11-21T05:02:16;99880.75;;;-0.56;100.00
77027;BME280;65956;52.986;17.490;2023-11-21T05:04:42;99875.22;;;-0.56;100.00
77027;BME280;65956;52.986;17.490;2023-11-21T05:07:11;99881.30;;;-0.56;100.00
77027;BME280;65956;52.986;17.490;2023-11-21T05:09:42;99883.02;;;-0.56;100.00
77027;BME280;65956;52.986;17.490;2023-11-21T05:12:10;99888.64;;;-0.58;100.00
77027;BME280;65956;52.986;17.490;2023-11-21T05:14:37;99890.73;;;-0.59;100.00
77027;BME280;65956;52.986;17.490;2023-11-21T05:17:03;99891.92;;;-0.61;100.00
77027;BME280;65956;52.986;17.490;2023-11-21T05:19:30;99893.07;;;-0.63;100.00
77027;BME280;65956;52.986;17.490;2023-11-21T05:21:56;99894.06;;;-0.63;100.00
77027;BME280;65956;52.986;17.490;2023-11-21T05:24:22;99897.63;;;-0.64;100.00
77027;BME280;65956;52.986;17.490;2023-11-21T05:26:48;99897.51;;;-0.63;100.00
77027;BME280;65956;52.986;17.490;2023-11-21T05:29:14;99899.70;;;-0.66;100.00
77027;BME280;65956;52.986;17.490;2023-11-21T05:31:40;99906.90;;;-0.67;100.00
77027;BME280;65956;52.986;17.490;2023-11-21T05:34:06;99910.23;;;-0.69;100.00
77027;BME280;65956;52.986;17.490;2023-11-21T05:36:32;99914.11;;;-0.71;100.00
77027;BME280;65956;52.986;17.490;2023-11-21T05:38:58;99915.69;;;-0.71;100.00
77027;BME280;65956;52.986;17.490;2023-11-21T05:41:24;99916.67;;;-0.71;100.00
77027;BME280;65956;52.986;17.490;2023-11-21T05:43:51;99923.91;;;-0.72;100.00
77027;BME280;65956;52.986;17.490;2023-11-21T05:46:17;99925.41;;;-0.73;100.00
77027;BME280;65956;52.986;17.490;2023-11-21T05:48:44;99923.77;;;-0.74;100.00
77027;BME280;65956;52.986;17.490;2023-11-21T05:51:11;99925.11;;;-0.77;100.00
77027;BME280;65956;52.986;17.490;2023-11-21T05:53:38;99929.30;;;-0.77;100.00
77027;BME280;65956;52.986;17.490;2023-11-21T05:56:04;99937.45;;;-0.78;100.00
77027;BME280;65956;52.986;17.490;2023-11-21T05:58:30;99944.05;;;-0.79;100.00
77027;BME280;65956;52.986;17.490;2023-11-21T06:00:56;99956.11;;;-0.81;100.00
77027;BME280;65956;52.986;17.490;2023-11-21T06:03:23;99955.39;;;-0.83;100.00
77027;BME280;65956;52.986;17.490;2023-11-21T06:05:49;99961.11;;;-0.84;100.00
77027;BME280;65956;52.986;17.490;2023-11-21T06:08:15;99963.17;;;-0.86;100.00
77027;BME280;65956;52.986;17.490;2023-11-21T06:10:43;99962.86;;;-0.89;100.00
77027;BME280;65956;52.986;17.490;2023-11-21T06:13:09;99961.30;;;-0.91;100.00
77027;BME280;65956;52.986;17.490;2023-11-21T06:15:36;99969.11;;;-0.93;100.00
77027;BME280;65956;52.986;17.490;2023-11-21T06:18:02;99974.69;;;-0.90;100.00
77027;BME280;65956;52.986;17.490;2023-11-21T06:20:28;99977.87;;;-0.91;100.00
77027;BME280;65956;52.986;17.490;2023-11-21T06:22:55;99981.42;;;-0.93;100.00
77027;BME280;65956;52.986;17.490;2023-11-21T06:25:21;99989.71;;;-0.96;100.00
77027;BME280;65956;52.986;17.490;2023-11-21T06:27:48;99995.13;;;-0.97;100.00
77027;BME280;65956;52.986;17.490;2023-11-21T06:30:15;99999.88;;;-0.97;100.00
77027;BME280;65956;52.986;17.490;2023-11-21T06:32:42;100004.43;;;-0.98;100.00
77027;BME280;65956;52.986;17.490;2023-11-21T06:35:11;100004.16;;;-0.98;100.00
77027;BME280;65956;52.986;17.490;2023-11-21T06:37:39;100003.98;;;-1.00;100.00
77027;BME280;65956;52.986;17.490;2023-11-21T06:40:05;100009.45;;;-1.00;100.00
77027;BME280;65956;52.986;17.490;2023-11-21T06:42:32;100006.69;;;-1.01;100.00
77027;BME280;65956;52.986;17.490;2023-11-21T06:44:59;100013.30;;;-1.01;100.00
77027;BME280;65956;52.986;17.490;2023-11-21T06:47:29;100014.91;;;-1.00;100.00
77027;BME280;65956;52.986;17.490;2023-11-21T06:49:56;100020.84;;;-0.99;100.00
77027;BME280;65956;52.986;17.490;2023-11-21T06:52:23;100025.37;;;-0.98;100.00
77027;BME280;65956;52.986;17.490;2023-11-21T06:54:49;100032.21;;;-0.98;100.00
77027;BME280;65956;52.986;17.490;2023-11-21T06:57:18;100037.69;;;-0.98;100.00
77027;BME280;65956;52.986;17.490;2023-11-21T06:59:44;100037.67;;;-0.97;100.00
77027;BME280;65956;52.986;17.490;2023-11-21T07:02:10;100047.84;;;-0.97;100.00
77027;BME280;65956;52.986;17.490;2023-11-21T07:04:36;100047.40;;;-0.95;100.00
77027;BME280;65956;52.986;17.490;2023-11-21T07:07:03;100052.95;;;-0.93;100.00
77027;BME280;65956;52.986;17.490;2023-11-21T07:09:30;100059.89;;;-0.89;100.00
77027;BME280;65956;52.986;17.490;2023-11-21T07:11:56;100058.73;;;-0.89;100.00
77027;BME280;65956;52.986;17.490;2023-11-21T07:14:23;100061.63;;;-0.88;100.00
77027;BME280;65956;52.986;17.490;2023-11-21T07:16:49;100065.17;;;-0.86;100.00
77027;BME280;65956;52.986;17.490;2023-11-21T07:19:15;100062.64;;;-0.84;100.00
77027;BME280;65956;52.986;17.490;2023-11-21T07:21:41;100064.30;;;-0.82;100.00
77027;BME280;65956;52.986;17.490;2023-11-21T07:24:08;100065.54;;;-0.82;100.00
77027;BME280;65956;52.986;17.490;2023-11-21T07:26:34;100074.05;;;-0.84;100.00
77027;BME280;65956;52.986;17.490;2023-11-21T07:29:01;100078.41;;;-0.83;100.00
77027;BME280;65956;52.986;17.490;2023-11-21T07:31:28;100080.52;;;-0.83;100.00
77027;BME280;65956;52.986;17.490;2023-11-21T07:33:55;100088.20;;;-0.83;100.00
77027;BME280;65956;52.986;17.490;2023-11-21T07:36:24;100089.29;;;-0.85;100.00
77027;BME280;65956;52.986;17.490;2023-11-21T07:38:51;100088.17;;;-0.87;100.00
77027;BME280;65956;52.986;17.490;2023-11-21T07:41:17;100090.60;;;-0.88;100.00
77027;BME280;65956;52.986;17.490;2023-11-21T07:43:45;100095.70;;;-0.88;100.00
77027;BME280;65956;52.986;17.490;2023-11-21T07:46:12;100101.81;;;-0.88;100.00
77027;BME280;65956;52.986;17.490;2023-11-21T07:48:39;100102.45;;;-0.87;100.00
77027;BME280;65956;52.986;17.490;2023-11-21T07:51:06;100102.20;;;-0.87;100.00
77027;BME280;65956;52.986;17.490;2023-11-21T07:53:32;100103.68;;;-0.86;100.00
77027;BME280;65956;52.986;17.490;2023-11-21T07:56:03;100104.29;;;-0.86;100.00
77027;BME280;65956;52.986;17.490;2023-11-21T07:58:29;100107.39;;;-0.87;99.99
77027;BME280;65956;52.986;17.490;2023-11-21T08:00:55;100111.77;;;-0.85;99.94
77027;BME280;65956;52.986;17.490;2023-11-21T08:03:21;100112.77;;;-0.83;99.94
77027;BME280;65956;52.986;17.490;2023-11-21T08:05:47;100114.52;;;-0.81;100.00
77027;BME280;65956;52.986;17.490;2023-11-21T08:08:13;100111.67;;;-0.79;100.00
77027;BME280;65956;52.986;17.490;2023-11-21T08:10:40;100113.91;;;-0.79;99.99
77027;BME280;65956;52.986;17.490;2023-11-21T08:13:06;100109.37;;;-0.79;99.97
77027;BME280;65956;52.986;17.490;2023-11-21T08:15:34;100106.19;;;-0.78;99.86
77027;BME280;65956;52.986;17.490;2023-11-21T08:18:02;100103.73;;;-0.77;99.92
77027;BME280;65956;52.986;17.490;2023-11-21T08:20:29;100109.59;;;-0.77;99.98
77027;BME280;65956;52.986;17.490;2023-11-21T08:22:55;100111.08;;;-0.80;99.77
77027;BME280;65956;52.986;17.490;2023-11-21T08:25:22;100119.86;;;-0.82;99.18
77027;BME280;65956;52.986;17.490;2023-11-21T08:27:48;100118.16;;;-0.84;98.79
77027;BME280;65956;52.986;17.490;2023-11-21T08:30:15;100122.54;;;-0.84;98.52
77027;BME280;65956;52.986;17.490;2023-11-21T08:32:43;100130.97;;;-0.85;97.88
77027;BME280;65956;52.986;17.490;2023-11-21T08:35:10;100131.20;;;-0.86;97.96
77027;BME280;65956;52.986;17.490;2023-11-21T08:37:37;100131.93;;;-0.87;97.76
77027;BME280;65956;52.986;17.490;2023-11-21T08:40:06;100136.77;;;-0.87;97.85
77027;BME280;65956;52.986;17.490;2023-11-21T08:42:35;100139.59;;;-0.87;97.86
77027;BME280;65956;52.986;17.490;2023-11-21T08:45:01;100136.77;;;-0.84;97.72
77027;BME280;65956;52.986;17.490;2023-11-21T08:47:27;100132.61;;;-0.82;97.96
77027;BME280;65956;52.986;17.490;2023-11-21T08:49:53;100133.45;;;-0.80;97.79
77027;BME280;65956;52.986;17.490;2023-11-21T08:52:20;100139.50;;;-0.78;97.19
77027;BME280;65956;52.986;17.490;2023-11-21T08:54:49;100143.34;;;-0.76;96.72
77027;BME280;65956;52.986;17.490;2023-11-21T08:57:25;100143.20;;;-0.75;96.76
77027;BME280;65956;52.986;17.490;2023-11-21T08:59:51;100143.04;;;-0.72;96.02
77027;BME280;65956;52.986;17.490;2023-11-21T09:02:22;100149.26;;;-0.68;95.69
77027;BME280;65956;52.986;17.490;2023-11-21T09:04:52;100150.83;;;-0.65;95.23
77027;BME280;65956;52.986;17.490;2023-11-21T09:07:19;100150.42;;;-0.60;95.28
77027;BME280;65956;52.986;17.490;2023-11-21T09:09:47;100150.54;;;-0.55;95.49
77027;BME280;65956;52.986;17.490;2023-11-21T09:12:14;100155.91;;;-0.53;95.28
77027;BME280;65956;52.986;17.490;2023-11-21T09:14:40;100163.70;;;-0.51;94.88
77027;BME280;65956;52.986;17.490;2023-11-21T09:17:06;100165.27;;;-0.50;94.73
77027;BME280;65956;52.986;17.490;2023-11-21T09:19:40;100176.52;;;-0.48;95.04
77027;BME280;65956;52.986;17.490;2023-11-21T09:22:07;100171.39;;;-0.46;95.33
77027;BME280;65956;52.986;17.490;2023-11-21T09:24:33;100173.58;;;-0.43;95.16
77027;BME280;65956;52.986;17.490;2023-11-21T09:27:00;100174.66;;;-0.39;95.15
77027;BME280;65956;52.986;17.490;2023-11-21T09:29:26;100170.12;;;-0.37;94.85
77027;BME280;65956;52.986;17.490;2023-11-21T09:31:53;100171.63;;;-0.35;94.66
77027;BME280;65956;52.986;17.490;2023-11-21T09:34:21;100179.73;;;-0.34;94.13
77027;BME280;65956;52.986;17.490;2023-11-21T09:36:50;100186.36;;;-0.33;93.34
77027;BME280;65956;52.986;17.490;2023-11-21T09:39:16;100192.02;;;-0.32;93.34
77027;BME280;65956;52.986;17.490;2023-11-21T09:41:49;100189.09;;;-0.32;92.79
77027;BME280;65956;52.986;17.490;2023-11-21T09:44:18;100192.08;;;-0.29;92.71
77027;BME280;65956;52.986;17.490;2023-11-21T09:46:47;100193.04;;;-0.28;93.29
77027;BME280;65956;52.986;17.490;2023-11-21T09:49:23;100197.83;;;-0.23;93.71
77027;BME280;65956;52.986;17.490;2023-11-21T09:51:54;100193.94;;;-0.23;93.06
77027;BME280;65956;52.986;17.490;2023-11-21T09:54:22;100194.11;;;-0.23;92.11
77027;BME280;65956;52.986;17.490;2023-11-21T09:56:48;100195.30;;;-0.22;92.14
77027;BME280;65956;52.986;17.490;2023-11-21T09:59:16;100193.81;;;-0.20;92.98
77027;BME280;65956;52.986;17.490;2023-11-21T10:01:42;100184.90;;;-0.18;92.80
77027;BME280;65956;52.986;17.490;2023-11-21T10:04:09;100186.83;;;-0.16;92.39
77027;BME280;65956;52.986;17.490;2023-11-21T10:06:41;100188.03;;;-0.15;92.21
77027;BME280;65956;52.986;17.490;2023-11-21T10:09:11;100190.70;;;-0.12;91.91
77027;BME280;65956;52.986;17.490;2023-11-21T10:11:41;100193.53;;;-0.08;91.93
77027;BME280;65956;52.986;17.490;2023-11-21T10:14:10;100195.86;;;-0.05;91.80
77027;BME280;65956;52.986;17.490;2023-11-21T10:16:38;100200.27;;;-0.01;91.79
77027;BME280;65956;52.986;17.490;2023-11-21T10:19:05;100204.64;;;0.03;91.76
77027;BME280;65956;52.986;17.490;2023-11-21T10:21:32;100203.74;;;0.04;90.95
77027;BME280;65956;52.986;17.490;2023-11-21T10:23:59;100206.83;;;0.06;89.80
77027;BME280;65956;52.986;17.490;2023-11-21T10:26:26;100205.73;;;0.06;89.61
77027;BME280;65956;52.986;17.490;2023-11-21T10:29:01;100208.46;;;0.06;89.21
77027;BME280;65956;52.986;17.490;2023-11-21T10:31:32;100209.05;;;0.05;89.54
77027;BME280;65956;52.986;17.490;2023-11-21T10:34:16;100215.31;;;0.07;89.11
77027;BME280;65956;52.986;17.490;2023-11-21T10:36:43;100216.73;;;0.09;89.06
77027;BME280;65956;52.986;17.490;2023-11-21T10:39:09;100224.32;;;0.11;89.17
77027;BME280;65956;52.986;17.490;2023-11-21T10:41:36;100226.69;;;0.10;88.76
77027;BME280;65956;52.986;17.490;2023-11-21T10:44:02;100233.89;;;0.14;89.13
77027;BME280;65956;52.986;17.490;2023-11-21T10:46:33;100233.10;;;0.15;89.00
77027;BME280;65956;52.986;17.490;2023-11-21T10:48:59;100229.58;;;0.16;88.71
77027;BME280;65956;52.986;17.490;2023-11-21T10:51:25;100228.88;;;0.18;89.13
77027;BME280;65956;52.986;17.490;2023-11-21T10:53:52;100225.70;;;0.24;89.63
77027;BME280;65956;52.986;17.490;2023-11-21T10:56:19;100225.04;;;0.29;90.06
77027;BME280;65956;52.986;17.490;2023-11-21T10:58:49;100227.26;;;0.32;90.72
77027;BME280;65956;52.986;17.490;2023-11-21T11:01:18;100233.55;;;0.34;90.10
77027;BME280;65956;52.986;17.490;2023-11-21T11:03:47;100236.42;;;0.32;89.74
77027;BME280;65956;52.986;17.490;2023-11-21T11:06:15;100240.34;;;0.28;88.96
77027;BME280;65956;52.986;17.490;2023-11-21T11:08:42;100237.39;;;0.27;89.20
77027;BME280;65956;52.986;17.490;2023-11-21T11:11:09;100238.46;;;0.28;89.14
77027;BME280;65956;52.986;17.490;2023-11-21T11:13:37;100240.92;;;0.31;89.30
77027;BME280;65956;52.986;17.490;2023-11-21T11:16:05;100242.70;;;0.33;89.94
77027;BME280;65956;52.986;17.490;2023-11-21T11:18:53;100252.92;;;0.34;90.57
77027;BME280;65956;52.986;17.490;2023-11-21T11:21:36;100249.88;;;0.30;90.33
77027;BME280;65956;52.986;17.490;2023-11-21T11:27:08;100259.41;;;0.18;89.45
77027;BME280;65956;52.986;17.490;2023-11-21T11:35:22;100275.97;;;0.09;87.95
77027;BME280;65956;52.986;17.490;2023-11-21T11:37:49;100283.70;;;0.09;88.51
77027;BME280;65956;52.986;17.490;2023-11-21T11:40:15;100289.04;;;0.07;88.50
77027;BME280;65956;52.986;17.490;2023-11-21T11:43:01;100289.89;;;0.02;88.37
77027;BME280;65956;52.986;17.490;2023-11-21T11:45:34;100296.82;;;-0.02;88.88
77027;BME280;65956;52.986;17.490;2023-11-21T11:48:10;100299.64;;;-0.04;88.97
77027;BME280;65956;52.986;17.490;2023-11-21T11:51:00;100298.59;;;-0.03;89.46
77027;BME280;65956;52.986;17.490;2023-11-21T11:53:33;100296.81;;;-0.02;90.04
77027;BME280;65956;52.986;17.490;2023-11-21T11:56:31;100296.88;;;-0.02;90.41
77027;BME280;65956;52.986;17.490;2023-11-21T11:59:01;100298.75;;;-0.06;90.45
77027;BME280;65956;52.986;17.490;2023-11-21T12:01:32;100310.08;;;-0.11;89.84
77027;BME280;65956;52.986;17.490;2023-11-21T12:06:47;100316.73;;;-0.18;90.15
77027;BME280;65956;52.986;17.490;2023-11-21T12:09:20;100315.87;;;-0.19;90.03
77027;BME280;65956;52.986;17.490;2023-11-21T12:11:48;100315.65;;;-0.16;90.16
77027;BME280;65956;52.986;17.490;2023-11-21T12:14:15;100315.38;;;-0.13;90.17
77027;BME280;65956;52.986;17.490;2023-11-21T12:16:42;100318.63;;;-0.12;89.66
77027;BME280;65956;52.986;17.490;2023-11-21T12:19:10;100323.46;;;-0.13;89.45
77027;BME280;65956;52.986;17.490;2023-11-21T12:21:36;100322.20;;;-0.13;89.82
77027;BME280;65956;52.986;17.490;2023-11-21T12:24:03;100318.42;;;-0.12;90.40
77027;BME280;65956;52.986;17.490;2023-11-21T12:26:29;100313.39;;;-0.13;90.45
77027;BME280;65956;52.986;17.490;2023-11-21T12:28:56;100316.46;;;-0.16;89.27
77027;BME280;65956;52.986;17.490;2023-11-21T12:31:24;100314.58;;;-0.18;89.63
77027;BME280;65956;52.986;17.490;2023-11-21T12:33:51;100321.23;;;-0.25;87.96
77027;BME280;65956;52.986;17.490;2023-11-21T12:36:17;100321.55;;;-0.28;88.41
77027;BME280;65956;52.986;17.490;2023-11-21T12:38:43;100331.09;;;-0.29;89.14
77027;BME280;65956;52.986;17.490;2023-11-21T12:41:09;100336.00;;;-0.30;88.70
77027;BME280;65956;52.986;17.490;2023-11-21T12:43:36;100330.95;;;-0.33;88.19
77027;BME280;65956;52.986;17.490;2023-11-21T12:46:08;100329.73;;;-0.32;88.90
77027;BME280;65956;52.986;17.490;2023-11-21T12:48:44;100333.80;;;-0.30;89.02
77027;BME280;65956;52.986;17.490;2023-11-21T12:51:12;100340.87;;;-0.30;88.78
77027;BME280;65956;52.986;17.490;2023-11-21T12:53:40;100340.70;;;-0.36;87.31
77027;BME280;65956;52.986;17.490;2023-11-21T12:56:13;100347.78;;;-0.37;87.62